Terminal Aerodrome Forecast
Issued by NWS

Home | Current Version | Previous Version | Text Only | Print | Product List | Glossary On
Versions: 1 2 3 4 5 6 7 8 9 10 11 12 13 14 15 16 17 18 19
000
FTUS43 KDLH 020700 AAA
TAFHIB
TAF AMD
KHIB 020759Z 0208/0306 VRB03KT P6SM FEW250
      TEMPO 0208/0212 3/4SM BR BKN007
     FM021800 21013G20KT P6SM SKC
     FM030100 19006KT P6SM SCT100=

USA.gov is the U.S. government's official web portal to all federal, state and local government web resources and services.